Pagrindinis puslapis
METAR-TAF:

METAR-TAF

Oro uostai :

Dhahran, Saudo Arabija

platuma: 26-16N, ilguma: 050-09E, Aukštis: 26 m

Dabartinis oras

Ataskaita buvo paskelbta 13 minutes, ne 11:00 UTC
Vėjas 7 kt iš Šiaurės
Temperatūra 31°C
Drėgmė 52%
Slėgis 1010 hPa
Matomumas: 8000 m

METAR: OEDR 251100Z 35007KT 8000 NSC 31/20 Q1010

Laikas: 14:13 (11:13 UTC)

Prognozė

Ataskaita buvo paskelbta 9 valandos ir 13 minutes, ne 02:00 UTC
Prognozė galioja nuo 25 metu 06 UTC su 26 metu 12 UTC
Vėjas 10 kt iš Vakarų/Šiaurės Vakarų
Matomumas: 8000 m
Tapsmas
nuo 25 metu 10 UTC su 25 metu 12 UTC
Vėjas 15 kt iš Šiaurės Rytų

TAF: OEDR 250200Z 2506/2612 30010KT 8000 NSC BECMG 2510/2512 05015KT

Orai ataskaitas ir orų prognozės (METAR, TAF).

turimą stotys yra geltonos ir raudonos taškus žemėlapyje.

Perkelti pele per norėdami pamatyti stoties vardą.

Tada spustelėkite, norėdami matyti oro stebėjimo ir prognozės.

Norėdami pakeisti žemėlapį: spustelėkite ant žalios mygtukų su juodo kryžiaus žemyn,; žalią mygtuką su brūkšneliu, jei norite nutolinti; arba žalių rodyklių gretimoms žemėlapius.


METAR-TAF: